sensor_id;sensor_type;location;lat;lon;timestamp;temperature;humidity
45849;DHT22;31567;54.600;9.842;2023-05-03T00:01:50;6.50;97.50
45849;DHT22;31567;54.600;9.842;2023-05-03T00:05:29;6.50;97.60
45849;DHT22;31567;54.600;9.842;2023-05-03T00:09:10;6.40;97.50
45849;DHT22;31567;54.600;9.842;2023-05-03T00:12:49;6.40;97.70
45849;DHT22;31567;54.600;9.842;2023-05-03T00:16:29;6.40;97.70
45849;DHT22;31567;54.600;9.842;2023-05-03T00:20:09;6.30;97.80
45849;DHT22;31567;54.600;9.842;2023-05-03T00:23:50;6.30;97.80
45849;DHT22;31567;54.600;9.842;2023-05-03T00:27:29;6.30;98.00
45849;DHT22;31567;54.600;9.842;2023-05-03T00:31:10;6.30;98.10
45849;DHT22;31567;54.600;9.842;2023-05-03T00:34:53;6.30;98.10
45849;DHT22;31567;54.600;9.842;2023-05-03T00:38:33;6.30;98.30
45849;DHT22;31567;54.600;9.842;2023-05-03T00:42:12;6.30;98.40
45849;DHT22;31567;54.600;9.842;2023-05-03T00:45:53;6.30;98.40
45849;DHT22;31567;54.600;9.842;2023-05-03T00:49:33;6.30;98.50
45849;DHT22;31567;54.600;9.842;2023-05-03T00:53:13;6.30;98.50
45849;DHT22;31567;54.600;9.842;2023-05-03T00:56:53;6.30;98.60
45849;DHT22;31567;54.600;9.842;2023-05-03T01:00:33;6.20;98.60
45849;DHT22;31567;54.600;9.842;2023-05-03T01:04:13;6.20;98.70
45849;DHT22;31567;54.600;9.842;2023-05-03T01:08:28;6.20;98.70
45849;DHT22;31567;54.600;9.842;2023-05-03T01:19:50;6.10;98.80
45849;DHT22;31567;54.600;9.842;2023-05-03T01:27:30;6.00;98.90
45849;DHT22;31567;54.600;9.842;2023-05-03T01:31:09;6.00;98.80
45849;DHT22;31567;54.600;9.842;2023-05-03T01:35:07;5.90;98.70
45849;DHT22;31567;54.600;9.842;2023-05-03T01:38:50;5.90;98.80
45849;DHT22;31567;54.600;9.842;2023-05-03T01:42:30;5.80;98.80
45849;DHT22;31567;54.600;9.842;2023-05-03T01:46:10;5.70;98.60
45849;DHT22;31567;54.600;9.842;2023-05-03T01:49:50;5.70;98.80
45849;DHT22;31567;54.600;9.842;2023-05-03T01:53:30;5.70;99.00
45849;DHT22;31567;54.600;9.842;2023-05-03T01:57:10;5.70;99.10
45849;DHT22;31567;54.600;9.842;2023-05-03T02:00:49;5.70;99.10
45849;DHT22;31567;54.600;9.842;2023-05-03T02:04:29;5.60;99.00
45849;DHT22;31567;54.600;9.842;2023-05-03T02:08:09;5.60;98.90
45849;DHT22;31567;54.600;9.842;2023-05-03T02:11:49;5.60;99.20
45849;DHT22;31567;54.600;9.842;2023-05-03T02:15:29;5.50;99.00
45849;DHT22;31567;54.600;9.842;2023-05-03T02:19:08;5.40;98.90
45849;DHT22;31567;54.600;9.842;2023-05-03T02:22:49;5.20;98.90
45849;DHT22;31567;54.600;9.842;2023-05-03T02:26:28;5.10;99.00
45849;DHT22;31567;54.600;9.842;2023-05-03T02:30:08;5.10;99.10
45849;DHT22;31567;54.600;9.842;2023-05-03T02:33:48;5.00;99.20
45849;DHT22;31567;54.600;9.842;2023-05-03T02:37:27;4.90;99.20
45849;DHT22;31567;54.600;9.842;2023-05-03T02:41:07;4.90;99.40
45849;DHT22;31567;54.600;9.842;2023-05-03T02:44:47;4.90;99.40
45849;DHT22;31567;54.600;9.842;2023-05-03T02:48:26;4.80;99.50
45849;DHT22;31567;54.600;9.842;2023-05-03T02:52:06;4.80;99.70
45849;DHT22;31567;54.600;9.842;2023-05-03T02:55:46;4.80;99.90
45849;DHT22;31567;54.600;9.842;2023-05-03T02:59:26;4.90;99.90
45849;DHT22;31567;54.600;9.842;2023-05-03T03:03:05;4.90;99.90
45849;DHT22;31567;54.600;9.842;2023-05-03T03:06:45;4.90;99.90
45849;DHT22;31567;54.600;9.842;2023-05-03T03:10:24;5.00;99.90
45849;DHT22;31567;54.600;9.842;2023-05-03T03:14:04;5.00;99.90
45849;DHT22;31567;54.600;9.842;2023-05-03T03:17:44;5.00;99.90
45849;DHT22;31567;54.600;9.842;2023-05-03T03:21:23;5.10;99.90
45849;DHT22;31567;54.600;9.842;2023-05-03T03:25:04;5.20;99.90
45849;DHT22;31567;54.600;9.842;2023-05-03T03:28:43;5.20;99.90
45849;DHT22;31567;54.600;9.842;2023-05-03T03:32:23;5.20;99.90
45849;DHT22;31567;54.600;9.842;2023-05-03T03:36:03;5.20;99.90
45849;DHT22;31567;54.600;9.842;2023-05-03T03:39:44;5.20;99.90
45849;DHT22;31567;54.600;9.842;2023-05-03T03:43:24;5.10;99.90
45849;DHT22;31567;54.600;9.842;2023-05-03T03:47:03;5.00;99.90
45849;DHT22;31567;54.600;9.842;2023-05-03T03:50:44;5.00;99.90
45849;DHT22;31567;54.600;9.842;2023-05-03T03:54:23;5.00;99.90
45849;DHT22;31567;54.600;9.842;2023-05-03T03:58:04;5.00;99.90
45849;DHT22;31567;54.600;9.842;2023-05-03T04:01:44;5.00;99.90
45849;DHT22;31567;54.600;9.842;2023-05-03T04:05:24;5.00;99.90
45849;DHT22;31567;54.600;9.842;2023-05-03T04:09:03;5.00;99.90
45849;DHT22;31567;54.600;9.842;2023-05-03T04:12:43;5.00;99.90
45849;DHT22;31567;54.600;9.842;2023-05-03T04:16:22;4.90;99.90
45849;DHT22;31567;54.600;9.842;2023-05-03T04:20:02;5.00;99.90
45849;DHT22;31567;54.600;9.842;2023-05-03T04:23:47;5.00;99.90
45849;DHT22;31567;54.600;9.842;2023-05-03T04:27:27;5.00;99.90
45849;DHT22;31567;54.600;9.842;2023-05-03T04:31:06;5.00;99.90
45849;DHT22;31567;54.600;9.842;2023-05-03T04:34:46;4.90;99.90
45849;DHT22;31567;54.600;9.842;2023-05-03T04:38:26;5.00;99.90
45849;DHT22;31567;54.600;9.842;2023-05-03T04:42:06;4.90;99.90
45849;DHT22;31567;54.600;9.842;2023-05-03T04:45:47;5.00;99.90
45849;DHT22;31567;54.600;9.842;2023-05-03T04:49:26;5.10;99.90
45849;DHT22;31567;54.600;9.842;2023-05-03T04:53:06;5.10;99.90
45849;DHT22;31567;54.600;9.842;2023-05-03T04:56:45;5.10;99.90
45849;DHT22;31567;54.600;9.842;2023-05-03T05:00:25;5.30;99.90
45849;DHT22;31567;54.600;9.842;2023-05-03T05:04:04;5.40;99.90
45849;DHT22;31567;54.600;9.842;2023-05-03T05:07:45;5.50;99.90
45849;DHT22;31567;54.600;9.842;2023-05-03T05:11:24;5.70;99.90
45849;DHT22;31567;54.600;9.842;2023-05-03T05:15:04;5.80;99.90
45849;DHT22;31567;54.600;9.842;2023-05-03T05:18:44;6.00;99.90
45849;DHT22;31567;54.600;9.842;2023-05-03T05:22:24;6.20;99.90
45849;DHT22;31567;54.600;9.842;2023-05-03T05:26:04;6.40;99.90
45849;DHT22;31567;54.600;9.842;2023-05-03T05:29:44;6.70;99.90
45849;DHT22;31567;54.600;9.842;2023-05-03T05:33:23;6.90;99.90
45849;DHT22;31567;54.600;9.842;2023-05-03T05:37:03;7.00;99.90
45849;DHT22;31567;54.600;9.842;2023-05-03T05:40:43;7.20;99.90
45849;DHT22;31567;54.600;9.842;2023-05-03T05:44:23;7.30;99.90
45849;DHT22;31567;54.600;9.842;2023-05-03T05:48:03;7.60;99.90
45849;DHT22;31567;54.600;9.842;2023-05-03T05:51:42;7.70;99.90
45849;DHT22;31567;54.600;9.842;2023-05-03T05:55:23;7.90;99.90
45849;DHT22;31567;54.600;9.842;2023-05-03T05:59:03;8.10;99.90
45849;DHT22;31567;54.600;9.842;2023-05-03T06:02:44;8.20;99.90
45849;DHT22;31567;54.600;9.842;2023-05-03T06:06:23;8.40;99.90
45849;DHT22;31567;54.600;9.842;2023-05-03T06:10:03;8.60;99.90
45849;DHT22;31567;54.600;9.842;2023-05-03T06:13:43;8.70;99.90
45849;DHT22;31567;54.600;9.842;2023-05-03T06:17:23;8.90;99.90
45849;DHT22;31567;54.600;9.842;2023-05-03T06:21:04;9.00;99.90
45849;DHT22;31567;54.600;9.842;2023-05-03T06:24:43;9.10;99.90
45849;DHT22;31567;54.600;9.842;2023-05-03T06:28:23;9.20;99.90
45849;DHT22;31567;54.600;9.842;2023-05-03T06:32:02;9.30;99.90
45849;DHT22;31567;54.600;9.842;2023-05-03T06:35:43;9.50;99.90
45849;DHT22;31567;54.600;9.842;2023-05-03T06:39:25;9.50;99.60
45849;DHT22;31567;54.600;9.842;2023-05-03T06:43:04;9.60;99.40
45849;DHT22;31567;54.600;9.842;2023-05-03T06:46:44;9.70;99.50
45849;DHT22;31567;54.600;9.842;2023-05-03T06:50:24;9.80;98.90
45849;DHT22;31567;54.600;9.842;2023-05-03T06:54:04;9.90;98.90
45849;DHT22;31567;54.600;9.842;2023-05-03T06:57:48;10.00;98.90
45849;DHT22;31567;54.600;9.842;2023-05-03T07:01:27;10.10;98.60
45849;DHT22;31567;54.600;9.842;2023-05-03T07:05:07;10.30;98.30
45849;DHT22;31567;54.600;9.842;2023-05-03T07:08:47;10.30;97.90
45849;DHT22;31567;54.600;9.842;2023-05-03T07:12:26;10.50;97.60
45849;DHT22;31567;54.600;9.842;2023-05-03T07:16:06;10.70;97.00
45849;DHT22;31567;54.600;9.842;2023-05-03T07:19:46;11.00;97.10
45849;DHT22;31567;54.600;9.842;2023-05-03T07:23:29;11.00;95.90
45849;DHT22;31567;54.600;9.842;2023-05-03T07:27:08;11.00;96.00
45849;DHT22;31567;54.600;9.842;2023-05-03T07:30:48;10.90;95.60
45849;DHT22;31567;54.600;9.842;2023-05-03T07:34:28;11.10;95.40
45849;DHT22;31567;54.600;9.842;2023-05-03T07:38:07;11.20;95.00
45849;DHT22;31567;54.600;9.842;2023-05-03T07:41:47;11.10;94.90
45849;DHT22;31567;54.600;9.842;2023-05-03T07:45:27;11.00;95.10
45849;DHT22;31567;54.600;9.842;2023-05-03T07:49:07;10.80;95.40
45849;DHT22;31567;54.600;9.842;2023-05-03T07:52:46;10.80;95.80
45849;DHT22;31567;54.600;9.842;2023-05-03T07:56:29;10.70;96.10
45849;DHT22;31567;54.600;9.842;2023-05-03T08:00:10;10.60;96.30
45849;DHT22;31567;54.600;9.842;2023-05-03T08:03:51;10.60;96.30
45849;DHT22;31567;54.600;9.842;2023-05-03T08:07:31;10.60;96.20
45849;DHT22;31567;54.600;9.842;2023-05-03T08:11:11;10.60;96.40
45849;DHT22;31567;54.600;9.842;2023-05-03T08:14:54;10.70;96.40
45849;DHT22;31567;54.600;9.842;2023-05-03T08:18:34;10.70;96.30
45849;DHT22;31567;54.600;9.842;2023-05-03T08:22:14;10.60;96.30
45849;DHT22;31567;54.600;9.842;2023-05-03T08:25:54;10.60;96.10
45849;DHT22;31567;54.600;9.842;2023-05-03T08:29:35;10.50;96.00
45849;DHT22;31567;54.600;9.842;2023-05-03T08:33:17;10.50;96.00
45849;DHT22;31567;54.600;9.842;2023-05-03T08:36:57;10.40;95.90
45849;DHT22;31567;54.600;9.842;2023-05-03T08:40:37;10.30;95.60
45849;DHT22;31567;54.600;9.842;2023-05-03T08:44:22;10.30;95.60
45849;DHT22;31567;54.600;9.842;2023-05-03T08:48:01;10.40;95.30
45849;DHT22;31567;54.600;9.842;2023-05-03T08:51:43;10.40;95.40
45849;DHT22;31567;54.600;9.842;2023-05-03T08:55:26;10.50;95.20
45849;DHT22;31567;54.600;9.842;2023-05-03T08:59:06;10.60;95.30
45849;DHT22;31567;54.600;9.842;2023-05-03T09:02:47;10.80;95.30
45849;DHT22;31567;54.600;9.842;2023-05-03T09:06:28;11.10;95.10
45849;DHT22;31567;54.600;9.842;2023-05-03T09:10:23;11.40;94.30
45849;DHT22;31567;54.600;9.842;2023-05-03T09:14:14;11.70;93.10
45849;DHT22;31567;54.600;9.842;2023-05-03T09:18:19;11.80;92.10
45849;DHT22;31567;54.600;9.842;2023-05-03T09:22:05;11.80;92.00
45849;DHT22;31567;54.600;9.842;2023-05-03T09:25:47;11.90;91.60
45849;DHT22;31567;54.600;9.842;2023-05-03T09:29:33;12.00;91.50
45849;DHT22;31567;54.600;9.842;2023-05-03T09:33:14;12.00;91.20
45849;DHT22;31567;54.600;9.842;2023-05-03T09:37:01;12.00;91.00
45849;DHT22;31567;54.600;9.842;2023-05-03T09:40:47;12.00;90.90
45849;DHT22;31567;54.600;9.842;2023-05-03T09:44:40;12.10;91.40
45849;DHT22;31567;54.600;9.842;2023-05-03T09:48:20;12.10;91.30
45849;DHT22;31567;54.600;9.842;2023-05-03T09:52:04;12.10;91.30
45849;DHT22;31567;54.600;9.842;2023-05-03T09:55:45;12.20;91.70
45849;DHT22;31567;54.600;9.842;2023-05-03T09:59:26;12.20;91.30
45849;DHT22;31567;54.600;9.842;2023-05-03T10:07:17;12.00;91.40
45849;DHT22;31567;54.600;9.842;2023-05-03T10:11:03;11.90;91.80
45849;DHT22;31567;54.600;9.842;2023-05-03T10:14:44;11.90;92.20
45849;DHT22;31567;54.600;9.842;2023-05-03T10:18:27;11.90;92.40
45849;DHT22;31567;54.600;9.842;2023-05-03T10:22:09;12.00;92.20
45849;DHT22;31567;54.600;9.842;2023-05-03T10:29:45;12.00;91.40
45849;DHT22;31567;54.600;9.842;2023-05-03T10:33:33;12.10;91.60
45849;DHT22;31567;54.600;9.842;2023-05-03T10:37:15;12.10;91.50
45849;DHT22;31567;54.600;9.842;2023-05-03T10:40:55;12.30;91.50
45849;DHT22;31567;54.600;9.842;2023-05-03T10:48:28;12.50;90.10
45849;DHT22;31567;54.600;9.842;2023-05-03T10:56:18;12.70;89.70
45849;DHT22;31567;54.600;9.842;2023-05-03T10:59:58;12.80;88.80
45849;DHT22;31567;54.600;9.842;2023-05-03T11:04:29;12.80;87.20
45849;DHT22;31567;54.600;9.842;2023-05-03T11:08:17;12.90;85.80
45849;DHT22;31567;54.600;9.842;2023-05-03T11:11:57;13.00;85.90
45849;DHT22;31567;54.600;9.842;2023-05-03T11:15:37;12.90;84.30
45849;DHT22;31567;54.600;9.842;2023-05-03T11:19:17;12.80;85.60
45849;DHT22;31567;54.600;9.842;2023-05-03T11:22:57;12.90;85.50
45849;DHT22;31567;54.600;9.842;2023-05-03T11:26:37;12.80;84.70
45849;DHT22;31567;54.600;9.842;2023-05-03T11:30:17;12.80;84.70
45849;DHT22;31567;54.600;9.842;2023-05-03T11:33:56;13.00;84.40
45849;DHT22;31567;54.600;9.842;2023-05-03T11:37:36;13.00;83.30
45849;DHT22;31567;54.600;9.842;2023-05-03T11:41:16;13.10;84.50
45849;DHT22;31567;54.600;9.842;2023-05-03T11:44:56;13.10;85.30
45849;DHT22;31567;54.600;9.842;2023-05-03T11:48:37;13.10;87.00
45849;DHT22;31567;54.600;9.842;2023-05-03T11:52:25;13.10;86.80
45849;DHT22;31567;54.600;9.842;2023-05-03T11:56:07;13.10;87.20
45849;DHT22;31567;54.600;9.842;2023-05-03T11:59:47;13.10;86.50
45849;DHT22;31567;54.600;9.842;2023-05-03T12:03:29;13.00;85.60
45849;DHT22;31567;54.600;9.842;2023-05-03T12:07:11;13.10;87.00
45849;DHT22;31567;54.600;9.842;2023-05-03T12:10:53;13.20;87.00
45849;DHT22;31567;54.600;9.842;2023-05-03T12:14:55;13.40;86.30
45849;DHT22;31567;54.600;9.842;2023-05-03T12:19:04;13.40;83.80
45849;DHT22;31567;54.600;9.842;2023-05-03T12:22:50;13.50;83.50
45849;DHT22;31567;54.600;9.842;2023-05-03T12:26:30;13.70;85.50
45849;DHT22;31567;54.600;9.842;2023-05-03T12:30:10;13.80;83.70
45849;DHT22;31567;54.600;9.842;2023-05-03T12:33:50;13.90;81.70
45849;DHT22;31567;54.600;9.842;2023-05-03T12:37:29;13.80;81.50
45849;DHT22;31567;54.600;9.842;2023-05-03T12:41:09;13.90;79.90
45849;DHT22;31567;54.600;9.842;2023-05-03T12:44:50;14.30;78.80
45849;DHT22;31567;54.600;9.842;2023-05-03T12:48:30;14.50;78.90
45849;DHT22;31567;54.600;9.842;2023-05-03T12:52:09;14.60;79.00
45849;DHT22;31567;54.600;9.842;2023-05-03T12:55:49;14.50;78.20
45849;DHT22;31567;54.600;9.842;2023-05-03T12:59:29;14.50;78.30
45849;DHT22;31567;54.600;9.842;2023-05-03T13:03:09;14.50;78.90
45849;DHT22;31567;54.600;9.842;2023-05-03T13:06:48;14.40;79.40
45849;DHT22;31567;54.600;9.842;2023-05-03T13:10:28;14.40;78.40
45849;DHT22;31567;54.600;9.842;2023-05-03T13:14:08;14.30;78.50
45849;DHT22;31567;54.600;9.842;2023-05-03T13:17:47;14.20;77.10
45849;DHT22;31567;54.600;9.842;2023-05-03T13:21:27;14.10;77.70
45849;DHT22;31567;54.600;9.842;2023-05-03T13:25:07;14.00;77.90
45849;DHT22;31567;54.600;9.842;2023-05-03T13:28:47;13.90;79.20
45849;DHT22;31567;54.600;9.842;2023-05-03T13:32:26;13.80;78.40
45849;DHT22;31567;54.600;9.842;2023-05-03T13:36:07;13.80;80.30
45849;DHT22;31567;54.600;9.842;2023-05-03T13:39:46;13.60;80.70
45849;DHT22;31567;54.600;9.842;2023-05-03T13:43:26;13.70;81.40
45849;DHT22;31567;54.600;9.842;2023-05-03T13:47:05;13.60;79.80
45849;DHT22;31567;54.600;9.842;2023-05-03T13:50:45;13.60;80.50
45849;DHT22;31567;54.600;9.842;2023-05-03T13:54:25;13.60;79.40
45849;DHT22;31567;54.600;9.842;2023-05-03T13:58:04;13.70;79.30
45849;DHT22;31567;54.600;9.842;2023-05-03T14:01:44;13.80;79.60
45849;DHT22;31567;54.600;9.842;2023-05-03T14:05:24;14.00;79.60
45849;DHT22;31567;54.600;9.842;2023-05-03T14:09:04;14.20;77.70
45849;DHT22;31567;54.600;9.842;2023-05-03T14:12:44;14.40;75.00
45849;DHT22;31567;54.600;9.842;2023-05-03T14:16:25;14.40;74.90
45849;DHT22;31567;54.600;9.842;2023-05-03T14:20:05;14.20;75.90
45849;DHT22;31567;54.600;9.842;2023-05-03T14:23:46;14.20;76.50
45849;DHT22;31567;54.600;9.842;2023-05-03T14:27:26;14.10;76.60
45849;DHT22;31567;54.600;9.842;2023-05-03T14:31:06;14.20;76.80
45849;DHT22;31567;54.600;9.842;2023-05-03T14:34:46;14.30;76.20
45849;DHT22;31567;54.600;9.842;2023-05-03T14:38:26;14.20;74.90
45849;DHT22;31567;54.600;9.842;2023-05-03T14:42:06;14.20;74.50
45849;DHT22;31567;54.600;9.842;2023-05-03T14:45:45;14.30;74.20
45849;DHT22;31567;54.600;9.842;2023-05-03T14:49:26;14.20;74.70
45849;DHT22;31567;54.600;9.842;2023-05-03T14:53:06;14.10;75.50
45849;DHT22;31567;54.600;9.842;2023-05-03T14:56:45;13.90;74.80
45849;DHT22;31567;54.600;9.842;2023-05-03T15:00:25;14.00;77.80
45849;DHT22;31567;54.600;9.842;2023-05-03T15:04:04;14.00;77.30
45849;DHT22;31567;54.600;9.842;2023-05-03T15:07:46;14.10;75.80
45849;DHT22;31567;54.600;9.842;2023-05-03T15:11:25;14.30;75.90
45849;DHT22;31567;54.600;9.842;2023-05-03T15:15:07;14.40;76.30
45849;DHT22;31567;54.600;9.842;2023-05-03T15:18:47;14.30;75.60
45849;DHT22;31567;54.600;9.842;2023-05-03T15:22:27;14.20;75.20
45849;DHT22;31567;54.600;9.842;2023-05-03T15:26:07;14.30;75.10
45849;DHT22;31567;54.600;9.842;2023-05-03T15:29:46;14.30;73.60
45849;DHT22;31567;54.600;9.842;2023-05-03T15:33:26;14.40;75.00
45849;DHT22;31567;54.600;9.842;2023-05-03T15:37:05;14.70;74.60
45849;DHT22;31567;54.600;9.842;2023-05-03T15:40:45;14.90;74.70
45849;DHT22;31567;54.600;9.842;2023-05-03T15:44:25;14.80;75.20
45849;DHT22;31567;54.600;9.842;2023-05-03T15:48:04;14.70;75.10
45849;DHT22;31567;54.600;9.842;2023-05-03T15:51:44;14.60;74.30
45849;DHT22;31567;54.600;9.842;2023-05-03T15:55:24;14.70;74.30
45849;DHT22;31567;54.600;9.842;2023-05-03T15:59:05;14.80;74.70
45849;DHT22;31567;54.600;9.842;2023-05-03T16:02:45;14.70;73.30
45849;DHT22;31567;54.600;9.842;2023-05-03T16:06:25;14.90;73.60
45849;DHT22;31567;54.600;9.842;2023-05-03T16:10:07;15.00;72.50
45849;DHT22;31567;54.600;9.842;2023-05-03T16:13:47;15.20;73.40
45849;DHT22;31567;54.600;9.842;2023-05-03T16:17:28;15.20;73.20
45849;DHT22;31567;54.600;9.842;2023-05-03T16:21:08;15.40;73.00
45849;DHT22;31567;54.600;9.842;2023-05-03T16:24:47;15.50;72.20
45849;DHT22;31567;54.600;9.842;2023-05-03T16:28:27;15.40;73.10
45849;DHT22;31567;54.600;9.842;2023-05-03T16:32:07;15.40;72.60
45849;DHT22;31567;54.600;9.842;2023-05-03T16:35:47;15.00;72.90
45849;DHT22;31567;54.600;9.842;2023-05-03T16:39:28;14.80;74.70
45849;DHT22;31567;54.600;9.842;2023-05-03T16:43:07;15.00;76.60
45849;DHT22;31567;54.600;9.842;2023-05-03T16:46:48;15.50;76.50
45849;DHT22;31567;54.600;9.842;2023-05-03T16:50:28;15.80;73.10
45849;DHT22;31567;54.600;9.842;2023-05-03T16:54:07;15.90;71.70
45849;DHT22;31567;54.600;9.842;2023-05-03T16:57:47;15.70;71.70
45849;DHT22;31567;54.600;9.842;2023-05-03T17:01:26;15.70;72.50
45849;DHT22;31567;54.600;9.842;2023-05-03T17:05:06;15.80;72.50
45849;DHT22;31567;54.600;9.842;2023-05-03T17:08:46;16.40;71.50
45849;DHT22;31567;54.600;9.842;2023-05-03T17:12:26;17.00;70.80
45849;DHT22;31567;54.600;9.842;2023-05-03T17:16:11;17.60;67.80
45849;DHT22;31567;54.600;9.842;2023-05-03T17:19:51;18.10;64.80
45849;DHT22;31567;54.600;9.842;2023-05-03T17:23:31;18.40;66.10
45849;DHT22;31567;54.600;9.842;2023-05-03T17:27:14;18.90;64.00
45849;DHT22;31567;54.600;9.842;2023-05-03T17:30:53;19.10;63.80
45849;DHT22;31567;54.600;9.842;2023-05-03T17:34:33;19.50;62.70
45849;DHT22;31567;54.600;9.842;2023-05-03T17:38:13;19.50;62.60
45849;DHT22;31567;54.600;9.842;2023-05-03T17:41:52;19.50;63.60
45849;DHT22;31567;54.600;9.842;2023-05-03T17:45:32;19.60;61.40
45849;DHT22;31567;54.600;9.842;2023-05-03T17:49:11;19.60;59.90
45849;DHT22;31567;54.600;9.842;2023-05-03T17:52:51;19.70;58.50
45849;DHT22;31567;54.600;9.842;2023-05-03T17:56:30;19.70;59.00
45849;DHT22;31567;54.600;9.842;2023-05-03T18:00:10;19.40;59.60
45849;DHT22;31567;54.600;9.842;2023-05-03T18:03:53;19.20;59.20
45849;DHT22;31567;54.600;9.842;2023-05-03T18:07:33;18.90;59.80
45849;DHT22;31567;54.600;9.842;2023-05-03T18:11:12;18.80;60.20
45849;DHT22;31567;54.600;9.842;2023-05-03T18:14:52;18.80;60.70
45849;DHT22;31567;54.600;9.842;2023-05-03T18:18:37;18.70;61.10
45849;DHT22;31567;54.600;9.842;2023-05-03T18:22:17;18.80;61.10
45849;DHT22;31567;54.600;9.842;2023-05-03T18:25:57;18.60;61.10
45849;DHT22;31567;54.600;9.842;2023-05-03T18:29:36;18.40;62.00
45849;DHT22;31567;54.600;9.842;2023-05-03T18:33:16;18.20;62.10
45849;DHT22;31567;54.600;9.842;2023-05-03T18:36:57;18.00;63.10
45849;DHT22;31567;54.600;9.842;2023-05-03T18:40:36;17.70;64.40
45849;DHT22;31567;54.600;9.842;2023-05-03T18:44:16;17.40;63.70
45849;DHT22;31567;54.600;9.842;2023-05-03T18:47:55;17.00;65.20
45849;DHT22;31567;54.600;9.842;2023-05-03T18:51:35;16.60;66.90
45849;DHT22;31567;54.600;9.842;2023-05-03T18:55:14;16.10;67.90
45849;DHT22;31567;54.600;9.842;2023-05-03T18:58:55;15.70;68.20
45849;DHT22;31567;54.600;9.842;2023-05-03T19:02:35;15.40;68.70
45849;DHT22;31567;54.600;9.842;2023-05-03T19:06:14;15.10;69.70
45849;DHT22;31567;54.600;9.842;2023-05-03T19:09:54;14.80;70.50
45849;DHT22;31567;54.600;9.842;2023-05-03T19:13:34;14.50;71.10
45849;DHT22;31567;54.600;9.842;2023-05-03T19:17:14;14.30;72.10
45849;DHT22;31567;54.600;9.842;2023-05-03T19:20:53;14.00;73.00
45849;DHT22;31567;54.600;9.842;2023-05-03T19:24:34;13.80;73.40
45849;DHT22;31567;54.600;9.842;2023-05-03T19:28:14;13.50;74.00
45849;DHT22;31567;54.600;9.842;2023-05-03T19:31:54;13.30;74.70
45849;DHT22;31567;54.600;9.842;2023-05-03T19:35:37;13.20;75.20
45849;DHT22;31567;54.600;9.842;2023-05-03T19:39:18;12.90;75.80
45849;DHT22;31567;54.600;9.842;2023-05-03T19:42:57;12.70;76.40
45849;DHT22;31567;54.600;9.842;2023-05-03T19:46:37;12.50;77.00
45849;DHT22;31567;54.600;9.842;2023-05-03T19:50:16;12.30;77.70
45849;DHT22;31567;54.600;9.842;2023-05-03T19:53:56;12.00;78.30
45849;DHT22;31567;54.600;9.842;2023-05-03T19:57:36;11.90;79.00
45849;DHT22;31567;54.600;9.842;2023-05-03T20:01:16;11.70;79.40
45849;DHT22;31567;54.600;9.842;2023-05-03T20:04:55;11.60;79.90
45849;DHT22;31567;54.600;9.842;2023-05-03T20:08:35;11.50;80.20
45849;DHT22;31567;54.600;9.842;2023-05-03T20:12:14;11.40;80.50
45849;DHT22;31567;54.600;9.842;2023-05-03T20:15:54;11.30;80.80
45849;DHT22;31567;54.600;9.842;2023-05-03T20:19:34;11.20;81.10
45849;DHT22;31567;54.600;9.842;2023-05-03T20:23:14;11.00;81.60
45849;DHT22;31567;54.600;9.842;2023-05-03T20:26:54;11.00;82.00
45849;DHT22;31567;54.600;9.842;2023-05-03T20:30:34;10.80;82.40
45849;DHT22;31567;54.600;9.842;2023-05-03T20:34:13;10.80;82.80
45849;DHT22;31567;54.600;9.842;2023-05-03T20:37:53;10.60;83.20
45849;DHT22;31567;54.600;9.842;2023-05-03T20:41:32;10.50;83.70
45849;DHT22;31567;54.600;9.842;2023-05-03T20:45:12;10.40;84.80
45849;DHT22;31567;54.600;9.842;2023-05-03T20:48:51;10.30;84.50
45849;DHT22;31567;54.600;9.842;2023-05-03T20:52:31;10.20;84.90
45849;DHT22;31567;54.600;9.842;2023-05-03T20:56:11;10.10;85.30
45849;DHT22;31567;54.600;9.842;2023-05-03T20:59:50;10.00;85.50
45849;DHT22;31567;54.600;9.842;2023-05-03T21:03:30;9.90;86.10
45849;DHT22;31567;54.600;9.842;2023-05-03T21:07:09;9.70;86.70
45849;DHT22;31567;54.600;9.842;2023-05-03T21:10:49;9.70;87.30
45849;DHT22;31567;54.600;9.842;2023-05-03T21:14:29;9.50;87.60
45849;DHT22;31567;54.600;9.842;2023-05-03T21:18:08;9.40;87.90
45849;DHT22;31567;54.600;9.842;2023-05-03T21:21:48;9.40;88.40
45849;DHT22;31567;54.600;9.842;2023-05-03T21:25:28;9.30;88.90
45849;DHT22;31567;54.600;9.842;2023-05-03T21:29:07;9.30;89.10
45849;DHT22;31567;54.600;9.842;2023-05-03T21:32:47;9.10;89.30
45849;DHT22;31567;54.600;9.842;2023-05-03T21:36:29;9.10;90.00
45849;DHT22;31567;54.600;9.842;2023-05-03T21:40:09;9.00;90.10
45849;DHT22;31567;54.600;9.842;2023-05-03T21:43:48;8.90;90.30
45849;DHT22;31567;54.600;9.842;2023-05-03T21:47:28;8.80;90.40
45849;DHT22;31567;54.600;9.842;2023-05-03T21:51:19;8.70;90.40
45849;DHT22;31567;54.600;9.842;2023-05-03T21:55:00;8.50;90.50
45849;DHT22;31567;54.600;9.842;2023-05-03T21:58:40;8.40;90.60
45849;DHT22;31567;54.600;9.842;2023-05-03T22:02:21;8.30;90.70
45849;DHT22;31567;54.600;9.842;2023-05-03T22:06:00;8.10;91.00
45849;DHT22;31567;54.600;9.842;2023-05-03T22:09:40;8.00;91.20
45849;DHT22;31567;54.600;9.842;2023-05-03T22:13:23;8.00;91.50
45849;DHT22;31567;54.600;9.842;2023-05-03T22:17:02;7.90;91.70
45849;DHT22;31567;54.600;9.842;2023-05-03T22:20:42;7.90;91.90
45849;DHT22;31567;54.600;9.842;2023-05-03T22:24:21;7.80;92.10
45849;DHT22;31567;54.600;9.842;2023-05-03T22:28:01;7.70;92.40
45849;DHT22;31567;54.600;9.842;2023-05-03T22:31:40;7.60;92.90
45849;DHT22;31567;54.600;9.842;2023-05-03T22:35:20;7.60;93.00
45849;DHT22;31567;54.600;9.842;2023-05-03T22:38:59;7.50;93.30
45849;DHT22;31567;54.600;9.842;2023-05-03T22:42:43;7.40;93.50
45849;DHT22;31567;54.600;9.842;2023-05-03T22:46:23;7.30;93.70
45849;DHT22;31567;54.600;9.842;2023-05-03T22:50:04;7.30;94.00
45849;DHT22;31567;54.600;9.842;2023-05-03T22:53:43;7.20;94.40
45849;DHT22;31567;54.600;9.842;2023-05-03T22:57:23;7.20;94.50
45849;DHT22;31567;54.600;9.842;2023-05-03T23:01:02;7.10;94.70
45849;DHT22;31567;54.600;9.842;2023-05-03T23:04:43;7.10;94.90
45849;DHT22;31567;54.600;9.842;2023-05-03T23:08:22;7.00;95.10
45849;DHT22;31567;54.600;9.842;2023-05-03T23:12:02;7.00;95.20
45849;DHT22;31567;54.600;9.842;2023-05-03T23:15:41;6.90;95.50
45849;DHT22;31567;54.600;9.842;2023-05-03T23:19:21;6.90;95.70
45849;DHT22;31567;54.600;9.842;2023-05-03T23:23:01;6.80;95.80
45849;DHT22;31567;54.600;9.842;2023-05-03T23:26:41;6.80;95.90
45849;DHT22;31567;54.600;9.842;2023-05-03T23:30:20;6.80;96.00
45849;DHT22;31567;54.600;9.842;2023-05-03T23:34:00;6.80;96.00
45849;DHT22;31567;54.600;9.842;2023-05-03T23:37:40;6.80;96.10
45849;DHT22;31567;54.600;9.842;2023-05-03T23:41:19;6.90;96.10
45849;DHT22;31567;54.600;9.842;2023-05-03T23:45:00;6.90;96.10
45849;DHT22;31567;54.600;9.842;2023-05-03T23:48:39;6.90;96.00
45849;DHT22;31567;54.600;9.842;2023-05-03T23:52:19;6.90;96.10